WetterOnline ( https://www.wetteronline.de )

Wetter aktuell Bohumín

Aktuelles Wetter: Raciborz (206m)

6-stündlich | Neueste Meldungen
Ortszeit Temperatur Wetter
So, 26.01. 7:00 -2.3° C wolkig
So, 26.01. 1:00 -3.8° C wolkenlos
Sa, 25.01. 19:00 -1.7° C fast wolkenlos
Sa, 25.01. 13:00 1.6° C wolkenlos
Sa, 25.01. 7:00 -3.3° C fast wolkenlos
Sa, 25.01. 1:00 -2.4° C wolkenlos
Fr, 24.01. 19:00 -1.0° C wolkig
Fr, 24.01. 13:00 0.3° C bedeckt
Ortszeit Temperatur Wetter
So, 26.01. 12:00 0.7° C bewölkt
So, 26.01. 11:00 0.1° C bewölkt
So, 26.01. 10:00 -0.4° C bewölkt
So, 26.01. 9:00 -1.2° C wolkig
So, 26.01. 8:00 -2.4° C leicht bewölkt
So, 26.01. 7:00 -2.3° C wolkig
Ortszeit Relative Feuchte Sichtweite
So, 26.01. 7:00 90% 5.0 km
So, 26.01. 1:00 92% 3.2 km
Sa, 25.01. 19:00 88% 4.5 km
Sa, 25.01. 13:00 75% 6 km
Sa, 25.01. 7:00 89% 4.2 km
Sa, 25.01. 1:00 86% 4.9 km
Fr, 24.01. 19:00 85% 8 km
Fr, 24.01. 13:00 81% 8 km
Ortszeit Relative Feuchte Sichtweite
So, 26.01. 12:00 85% 12 km
So, 26.01. 11:00 87% 12 km
So, 26.01. 10:00 88% 10 km
So, 26.01. 9:00 89% 7 km
So, 26.01. 8:00 91% 4.3 km
So, 26.01. 7:00 90% 5.0 km
Ortszeit Niederschlagsmenge Niederschlagsart
So, 26.01. 7:00 0.0 l/m2 in 12 Std. -
So, 26.01. 1:00 0.0 l/m2 in 6 Std. -
Sa, 25.01. 19:00 0.0 l/m2 in 12 Std. -
Sa, 25.01. 13:00 0.0 l/m2 in 6 Std. -
Sa, 25.01. 7:00 0.0 l/m2 in 12 Std. -
Sa, 25.01. 1:00 0.0 l/m2 in 6 Std. -
Fr, 24.01. 19:00 0.0 l/m2 in 12 Std. -
Fr, 24.01. 13:00 0.0 l/m2 in 6 Std. -
Ortszeit Niederschlagsmenge Niederschlagsart
So, 26.01. 12:00 keine Meldung -
So, 26.01. 11:00 keine Meldung -
So, 26.01. 10:00 keine Meldung -
So, 26.01. 9:00 keine Meldung -
So, 26.01. 8:00 keine Meldung -
So, 26.01. 7:00 keine Meldung -
Ortszeit Stärke Spitze Richtung
km/h Bft. km/h Grad Sektor
So, 26.01. 7:00 7 2 - 180° S
So, 26.01. 1:00 7 2 - 210° SW
Sa, 25.01. 19:00 11 2 - 210° SW
Sa, 25.01. 13:00 11 2 - 230° SW
Sa, 25.01. 7:00 11 2 - 190° S
Sa, 25.01. 1:00 11 2 - 200° S
Fr, 24.01. 19:00 22 4 54 220° SW
Fr, 24.01. 13:00 32 5 54 230° SW
Ortszeit Stärke Spitze Richtung
km/h Bft. km/h Grad Sektor
So, 26.01. 12:00 11 2 - 210° SW
So, 26.01. 11:00 18 3 - 200° S
So, 26.01. 10:00 14 3 - 190° S
So, 26.01. 9:00 11 2 - 180° S
So, 26.01. 8:00 11 2 - 170° S
So, 26.01. 7:00 7 2 - 180° S
Ortszeit Untergrenze Bedeckung Gattung
total tief tief mittel hoch
So, 26.01. 7:00 - 6/8 3/8 St - Cs
So, 26.01. 1:00 - 0/8 0/8 - - -
Sa, 25.01. 19:00 - 1/8 0/8 - - Ci
Sa, 25.01. 13:00 - 0/8 0/8 - - -
Sa, 25.01. 7:00 - 1/8 0/8 - - Ci
Sa, 25.01. 1:00 - 0/8 0/8 - - -
Fr, 24.01. 19:00 - 5/8 5/8 Sc - -
Fr, 24.01. 13:00 - 8/8 8/8 Sc - -
Ortszeit Bedeckungsgrad in Achtel und Wolkenuntergrenze
So, 26.01. 12:00 7(360m)
So, 26.01. 11:00 7(330m)
So, 26.01. 10:00 7(300m)
So, 26.01. 9:00 6(300m)
So, 26.01. 8:00 6
So, 26.01. 7:00 6
Ortszeit Luftdruck NN (hPa) Tendenz (hPa in 3 Std.)
So, 26.01. 7:00 1023 + 0,1
So, 26.01. 1:00 1024 - 0,4
Sa, 25.01. 19:00 1024 + 1,2
Sa, 25.01. 13:00 1023 - 0,8
Sa, 25.01. 7:00 1024 + 0,2
Sa, 25.01. 1:00 1024 0,0
Fr, 24.01. 19:00 1024 + 0,2
Fr, 24.01. 13:00 1025 - 1,2
Ortszeit Luftdruck NN (hPa) Tendenz (hPa in 3 Std.)
So, 26.01. 12:00 1022 - 0,7
So, 26.01. 11:00 1023 0,0
So, 26.01. 10:00 1023 + 0,5
So, 26.01. 9:00 1023 + 0,4
So, 26.01. 8:00 1023 + 0,1
So, 26.01. 7:00 1023 + 0,1
Ortszeit Schneehöhe (cm)
So, 26.01. 7:00 -
So, 26.01. 1:00 -
Sa, 25.01. 19:00 -
Sa, 25.01. 13:00 -
Sa, 25.01. 7:00 -
Sa, 25.01. 1:00 -
Fr, 24.01. 19:00 -
Fr, 24.01. 13:00 -
Ortszeit Schneehöhe (cm)
So, 26.01. 12:00 -
So, 26.01. 11:00 -
So, 26.01. 10:00 -
So, 26.01. 9:00 -
So, 26.01. 8:00 -
So, 26.01. 7:00 -
Link zu dieser Seite / Seite empfehlen

Das Wetter in ...